Aeroporto :
LOGIN :

Iscrizione | Disclaimer

   EN    FR    IT 

 










Sommario :    VFR   VFR Marginale   IFR   IFR Intensivo   IFR Molto Intensivo
Visibilità : 
Base nubi : 
>= 8 km
>= 3000ft
5 / 8 km
1000 / 3000 ft
1500m / 5 km
500 / 1000 ft
800 / 1500m
200 / 500 ft
< 800m
< 200 ft
Simboli :   Temporali  Nebbia  Neve Forte  Precipitazioni Forti  Vento > 20 kt
SIGMETs :   Varie  Temporali  Ghiacco  Turbolenza  Onda orograficha  Ceneri Vulcaniche






- Altitudine del aeroporto : 148 ft
- Codice IATA : KHE


UKOH - Chernobayevka

ULTIMO METAR :
  • 010330Z 12004MPS 9999 BKN043CB 14/13 Q1007 NOSIG

METARs OBSOLETI :
  • 010300Z 10005MPS 9999 BKN043CB 14/13 Q1007 NOSIG
  • 010230Z 11004MPS 9999 BKN038CB 14/12 Q1007 NOSIG
  • 010200Z 13004MPS 9999 BKN038CB 14/12 Q1007 NOSIG
  • 010130Z 12005MPS 9999 BKN040CB 14/12 Q1007 NOSIG
  • 010100Z 12004MPS 9999 BKN040CB 14/12 Q1007 NOSIG

TAF TAF UKOH
Valido dal 01 a 03 ore il 01 a 12 ore UTC


010207Z 0103/0112 13006G12MPS 5000 BR BKN007 BKN025CB
TEMPO 0103/0106 0500 -SHRA FG VV002



MetMap, La meteo Aeronautica in un colpo d'occhio ! - Copyright ORBIFLY Dicembre 2007 - Disclaimer

ORBIFLY MET'MAP TEAM :

Programmazione e sviluppo : Alexandra Zaïnal
Concezione : Baudouin d'Aumeries
Aiuto per la programmazione : Marc-Olivier Méhu
Supporto tecnico e logistico : Manuel Goepfert
Aiuto per la traduzione : Arnaldo La Scala

Contatto : metmap@orbifly.com




FONTI E CREDITI :

   NOAA